createdAt,value
2022-08-25T00:02:02.001Z,18.85
2022-08-25T00:04:31.292Z,19.80
2022-08-25T00:07:03.558Z,22.23
2022-08-25T00:09:33.164Z,19.60
2022-08-25T00:12:01.743Z,19.25
2022-08-25T00:14:36.669Z,19.25
2022-08-25T00:17:06.311Z,20.02
2022-08-25T00:19:37.377Z,19.70
2022-08-25T00:22:05.787Z,20.85
2022-08-25T00:24:34.074Z,19.10
2022-08-25T00:27:02.078Z,19.17
2022-08-25T00:29:31.236Z,19.33
2022-08-25T00:31:59.859Z,20.08
2022-08-25T00:34:34.447Z,19.30
2022-08-25T00:37:06.693Z,20.13
2022-08-25T00:39:35.067Z,19.83
2022-08-25T00:42:04.510Z,21.02
2022-08-25T00:44:35.674Z,20.30
2022-08-25T00:47:05.095Z,21.35
2022-08-25T00:49:41.625Z,18.93
2022-08-25T00:52:14.743Z,18.98
2022-08-25T00:55:03.069Z,19.98
2022-08-25T00:57:38.131Z,20.27
2022-08-25T01:00:17.224Z,21.15
2022-08-25T01:02:45.435Z,18.88
2022-08-25T01:05:13.360Z,20.25
2022-08-25T01:07:44.631Z,19.13
2022-08-25T01:10:13.823Z,19.45
2022-08-25T01:12:42.246Z,20.85
2022-08-25T01:15:14.465Z,19.10
2022-08-25T01:17:54.320Z,19.55
2022-08-25T01:20:29.428Z,20.60
2022-08-25T01:22:58.513Z,20.35
2022-08-25T01:25:48.026Z,20.45
2022-08-25T01:28:16.838Z,21.03
2022-08-25T01:30:44.727Z,20.35
2022-08-25T01:33:12.737Z,18.85
2022-08-25T01:35:41.454Z,21.02
2022-08-25T01:38:09.613Z,21.38
2022-08-25T01:40:40.314Z,19.73
2022-08-25T01:43:18.625Z,18.98
2022-08-25T01:45:48.950Z,19.15
2022-08-25T01:50:44.700Z,19.02
2022-08-25T01:53:22.859Z,20.85
2022-08-25T01:55:54.155Z,20.63
2022-08-25T01:58:30.901Z,21.08
2022-08-25T02:01:03.023Z,20.65
2022-08-25T02:03:31.370Z,21.52
2022-08-25T02:06:01.513Z,21.50
2022-08-25T02:08:32.081Z,20.02
2022-08-25T02:11:00.381Z,20.48
2022-08-25T02:13:32.527Z,22.65
2022-08-25T02:16:02.488Z,19.40
2022-08-25T02:18:31.234Z,20.02
2022-08-25T02:20:59.323Z,20.88
2022-08-25T02:23:27.502Z,20.33
2022-08-25T02:25:57.448Z,19.77
2022-08-25T02:28:26.324Z,19.60
2022-08-25T02:30:58.704Z,21.02
2022-08-25T02:33:30.681Z,19.70
2022-08-25T02:36:00.772Z,20.92
2022-08-25T02:38:30.039Z,20.80
2022-08-25T02:40:59.181Z,20.40
2022-08-25T02:43:28.202Z,18.00
2022-08-25T02:45:56.655Z,18.02
2022-08-25T02:48:26.062Z,19.42
2022-08-25T02:50:53.862Z,23.17
2022-08-25T02:53:22.460Z,20.33
2022-08-25T02:55:50.164Z,18.75
2022-08-25T02:58:18.000Z,19.05
2022-08-25T03:00:47.044Z,19.83
2022-08-25T03:03:15.670Z,17.58
2022-08-25T03:05:43.454Z,19.15
2022-08-25T03:08:11.396Z,20.83
2022-08-25T03:10:39.398Z,18.75
2022-08-25T03:13:07.227Z,20.98
2022-08-25T03:15:38.038Z,25.17
2022-08-25T03:18:08.652Z,24.45
2022-08-25T03:20:36.831Z,29.02
2022-08-25T03:23:06.321Z,24.40
2022-08-25T03:25:53.291Z,27.53
2022-08-25T03:28:25.028Z,26.60
2022-08-25T03:30:58.193Z,27.08
2022-08-25T03:33:26.692Z,26.92
2022-08-25T03:35:55.549Z,21.98
2022-08-25T03:38:24.625Z,24.50
2022-08-25T03:40:53.588Z,23.83
2022-08-25T03:43:21.804Z,26.65
2022-08-25T03:45:49.963Z,24.48
2022-08-25T03:48:18.804Z,23.92
2022-08-25T03:50:52.312Z,28.13
2022-08-25T03:53:20.559Z,25.80
2022-08-25T03:55:48.443Z,25.58
2022-08-25T03:58:16.268Z,24.95
2022-08-25T04:00:44.362Z,27.73
2022-08-25T04:03:12.303Z,23.80
2022-08-25T04:05:40.233Z,24.42
2022-08-25T04:08:09.499Z,26.15
2022-08-25T04:10:37.873Z,25.15
2022-08-25T04:13:06.723Z,23.55
2022-08-25T04:15:36.185Z,24.55
2022-08-25T04:18:04.371Z,22.80
2022-08-25T04:20:32.477Z,24.02
2022-08-25T04:23:01.591Z,26.15
2022-08-25T04:25:29.766Z,24.48
2022-08-25T04:27:58.133Z,26.25
2022-08-25T04:30:25.972Z,23.67
2022-08-25T04:32:53.708Z,23.10
2022-08-25T04:35:23.062Z,25.95
2022-08-25T04:37:51.076Z,21.83
2022-08-25T04:40:19.217Z,25.15
2022-08-25T04:42:51.960Z,22.60
2022-08-25T04:45:19.975Z,23.10
2022-08-25T04:47:50.653Z,23.17
2022-08-25T04:50:22.417Z,21.27
2022-08-25T04:52:50.175Z,23.38
2022-08-25T04:55:18.306Z,20.60
2022-08-25T04:57:46.381Z,21.55
2022-08-25T05:00:14.724Z,24.23
2022-08-25T05:02:42.762Z,22.67
2022-08-25T05:05:10.797Z,24.58
2022-08-25T05:07:38.477Z,22.55
2022-08-25T05:10:06.710Z,24.17
2022-08-25T05:12:34.760Z,20.88
2022-08-25T05:15:24.358Z,21.27
2022-08-25T05:17:55.808Z,21.05
2022-08-25T05:20:25.158Z,21.15
2022-08-25T05:22:53.115Z,20.75
2022-08-25T05:25:21.160Z,21.80
2022-08-25T05:27:48.988Z,19.98
2022-08-25T05:30:16.840Z,20.58
2022-08-25T05:32:45.414Z,18.33
2022-08-25T05:35:13.591Z,20.15
2022-08-25T05:37:41.890Z,20.13
2022-08-25T05:40:10.718Z,20.33
2022-08-25T05:42:38.753Z,20.02
2022-08-25T05:45:07.662Z,20.40
2022-08-25T05:47:36.564Z,20.42
2022-08-25T05:50:04.968Z,18.30
2022-08-25T05:52:33.452Z,19.15
2022-08-25T05:55:01.429Z,18.40
2022-08-25T05:57:29.882Z,18.15
2022-08-25T05:59:57.736Z,17.92
2022-08-25T06:02:44.105Z,17.83
2022-08-25T06:05:14.781Z,17.83
2022-08-25T06:07:43.101Z,16.50
2022-08-25T06:10:14.225Z,18.10
2022-08-25T06:12:45.105Z,17.67
2022-08-25T06:15:19.712Z,17.20
2022-08-25T06:17:49.531Z,19.70
2022-08-25T06:20:25.368Z,18.83
2022-08-25T06:22:54.326Z,16.38
2022-08-25T06:25:24.080Z,16.60
2022-08-25T06:27:52.638Z,18.73
2022-08-25T06:30:24.597Z,16.77
2022-08-25T06:32:57.572Z,16.02
2022-08-25T06:35:25.472Z,14.32
2022-08-25T06:37:53.618Z,17.27
2022-08-25T06:40:22.151Z,16.70
2022-08-25T06:42:50.436Z,17.15
2022-08-25T06:45:18.951Z,16.23
2022-08-25T06:47:46.966Z,14.88
2022-08-25T06:50:16.180Z,17.88
2022-08-25T06:52:44.047Z,15.68
2022-08-25T06:55:12.729Z,16.55
2022-08-25T06:57:40.785Z,14.65
2022-08-25T07:00:12.321Z,15.75
2022-08-25T07:02:40.889Z,15.40
2022-08-25T07:05:13.205Z,14.60
2022-08-25T07:07:44.060Z,16.02
2022-08-25T07:10:14.021Z,14.30
2022-08-25T07:12:47.610Z,15.00
2022-08-25T07:15:20.464Z,16.27
2022-08-25T07:17:50.034Z,15.27
2022-08-25T07:20:19.360Z,13.35
2022-08-25T07:22:48.513Z,14.13
2022-08-25T07:25:17.790Z,14.45
2022-08-25T07:27:47.614Z,14.68
2022-08-25T07:30:17.261Z,14.70
2022-08-25T07:32:45.154Z,16.60
2022-08-25T07:35:15.994Z,14.27
2022-08-25T07:37:52.822Z,15.32
2022-08-25T07:40:28.787Z,15.43
2022-08-25T07:43:00.866Z,15.95
2022-08-25T07:45:31.597Z,13.95
2022-08-25T07:48:02.572Z,14.13
2022-08-25T07:50:31.834Z,14.68
2022-08-25T07:53:00.576Z,15.17
2022-08-25T07:55:30.623Z,15.70
2022-08-25T07:58:01.043Z,15.27
2022-08-25T08:00:30.807Z,15.15
2022-08-25T08:03:00.214Z,14.63
2022-08-25T08:05:32.545Z,14.25
2022-08-25T08:08:01.497Z,15.13
2022-08-25T08:13:18.691Z,13.40
2022-08-25T08:15:47.934Z,14.02
2022-08-25T08:18:16.198Z,14.02
2022-08-25T08:20:47.630Z,13.10
2022-08-25T08:23:16.864Z,12.50
2022-08-25T08:25:44.755Z,13.07
2022-08-25T08:28:12.797Z,13.65
2022-08-25T08:30:53.144Z,13.45
2022-08-25T08:33:23.326Z,12.18
2022-08-25T08:36:05.232Z,12.95
2022-08-25T08:38:35.239Z,12.88
2022-08-25T08:41:23.070Z,14.20
2022-08-25T08:44:00.736Z,14.40
2022-08-25T08:46:43.811Z,13.63
2022-08-25T08:49:50.158Z,11.57
2022-08-25T08:52:22.532Z,13.45
2022-08-25T08:55:01.095Z,12.30
2022-08-25T08:57:32.942Z,13.02
2022-08-25T09:00:03.397Z,12.10
2022-08-25T09:02:51.413Z,12.52
2022-08-25T09:05:26.956Z,12.38
2022-08-25T09:08:11.364Z,12.02
2022-08-25T09:11:01.717Z,12.07
2022-08-25T09:13:41.880Z,15.68
2022-08-25T09:16:42.705Z,12.90
2022-08-25T09:19:21.315Z,13.48
2022-08-25T09:22:34.031Z,13.70
2022-08-25T09:25:39.842Z,14.93
2022-08-25T09:28:41.191Z,12.68
2022-08-25T09:31:40.138Z,14.10
2022-08-25T09:34:25.057Z,13.38
2022-08-25T09:36:53.482Z,13.85
2022-08-25T09:39:23.607Z,15.82
2022-08-25T09:41:59.246Z,14.68
2022-08-25T09:44:34.633Z,18.85
2022-08-25T09:47:18.144Z,16.75
2022-08-25T09:50:05.745Z,16.23
2022-08-25T09:52:41.453Z,15.80
2022-08-25T09:55:15.501Z,14.90
2022-08-25T09:57:46.219Z,17.35
2022-08-25T10:00:26.584Z,16.75
2022-08-25T10:03:24.814Z,16.85
2022-08-25T10:05:58.850Z,17.75
2022-08-25T10:08:51.848Z,17.75
2022-08-25T10:11:41.961Z,18.70
2022-08-25T10:14:19.528Z,15.45
2022-08-25T10:16:49.452Z,16.23
2022-08-25T10:19:27.744Z,16.73
2022-08-25T10:22:32.201Z,16.77
2022-08-25T10:25:01.143Z,18.20
2022-08-25T10:27:40.960Z,15.95
2022-08-25T10:30:23.873Z,16.77
2022-08-25T10:32:52.273Z,16.13
2022-08-25T10:35:35.718Z,15.63
2022-08-25T10:38:21.644Z,16.27
2022-08-25T10:41:02.180Z,16.70
2022-08-25T10:43:50.610Z,16.95
2022-08-25T10:46:45.598Z,16.30
2022-08-25T10:49:16.900Z,13.60
2022-08-25T10:52:12.097Z,11.73
2022-08-25T10:55:09.748Z,11.02
2022-08-25T10:58:00.552Z,12.00
2022-08-25T11:00:37.886Z,11.43
2022-08-25T11:03:12.403Z,11.23
2022-08-25T11:05:50.733Z,10.32
2022-08-25T11:08:41.373Z,10.88
2022-08-25T11:11:33.245Z,10.23
2022-08-25T11:14:11.322Z,10.05
2022-08-25T11:16:57.930Z,11.30
2022-08-25T11:19:33.830Z,10.32
2022-08-25T11:22:01.705Z,10.68
2022-08-25T11:24:33.090Z,11.10
2022-08-25T11:27:09.074Z,10.35
2022-08-25T11:29:44.233Z,9.57
2022-08-25T11:32:13.090Z,11.15
2022-08-25T11:34:43.715Z,9.65
2022-08-25T11:37:24.262Z,8.93
2022-08-25T11:40:04.754Z,9.65
2022-08-25T11:43:08.379Z,10.15
2022-08-25T11:45:54.623Z,10.35
2022-08-25T11:48:29.903Z,9.18
2022-08-25T11:51:04.993Z,9.82
2022-08-25T11:53:37.630Z,10.82
2022-08-25T11:56:30.751Z,11.95
2022-08-25T11:58:59.421Z,9.35
2022-08-25T12:01:46.198Z,10.83
2022-08-25T12:04:34.158Z,9.75
2022-08-25T12:07:14.172Z,11.93
2022-08-25T12:09:51.878Z,11.70
2022-08-25T12:12:32.870Z,10.55
2022-08-25T12:15:32.181Z,10.23
2022-08-25T12:20:58.213Z,9.73
2022-08-25T12:23:30.072Z,10.75
2022-08-25T12:26:11.096Z,11.10
2022-08-25T12:29:01.609Z,11.50
2022-08-25T12:32:09.275Z,10.32
2022-08-25T12:34:53.682Z,10.30
2022-08-25T12:37:24.521Z,9.70
2022-08-25T12:39:55.353Z,10.05
2022-08-25T12:42:40.311Z,10.63
2022-08-25T12:45:08.364Z,11.00
2022-08-25T12:47:43.054Z,9.95
2022-08-25T12:50:48.784Z,10.55
2022-08-25T12:53:25.761Z,10.00
2022-08-25T12:56:01.848Z,10.00
2022-08-25T12:59:00.233Z,10.77
2022-08-25T13:02:02.917Z,12.02
2022-08-25T13:04:50.837Z,10.52
2022-08-25T13:07:33.885Z,10.40
2022-08-25T13:10:35.479Z,11.10
2022-08-25T13:13:26.537Z,11.50
2022-08-25T13:16:06.758Z,11.05
2022-08-25T13:18:37.036Z,11.75
2022-08-25T13:21:25.378Z,9.75
2022-08-25T13:24:04.686Z,10.55
2022-08-25T13:26:48.367Z,10.82
2022-08-25T13:29:22.302Z,9.07
2022-08-25T13:31:57.852Z,10.50
2022-08-25T13:34:35.064Z,9.05
2022-08-25T13:37:31.350Z,10.38
2022-08-25T13:40:13.756Z,10.68
2022-08-25T13:42:48.991Z,10.13
2022-08-25T13:45:28.428Z,9.32
2022-08-25T13:47:58.303Z,9.57
2022-08-25T13:50:26.365Z,9.10
2022-08-25T13:53:06.529Z,8.90
2022-08-25T13:55:50.834Z,9.57
2022-08-25T13:58:32.478Z,11.07
2022-08-25T14:01:23.062Z,8.93
2022-08-25T14:04:20.741Z,8.43
2022-08-25T14:06:49.546Z,9.45
2022-08-25T14:09:28.212Z,10.80
2022-08-25T14:11:58.736Z,10.83
2022-08-25T14:14:26.451Z,9.63
2022-08-25T14:17:00.837Z,10.07
2022-08-25T14:19:30.848Z,10.48
2022-08-25T14:22:03.125Z,9.82
2022-08-25T14:24:40.707Z,9.77
2022-08-25T14:27:08.782Z,10.63
2022-08-25T14:29:41.281Z,9.30
2022-08-25T14:32:10.782Z,9.88
2022-08-25T14:34:41.740Z,9.98
2022-08-25T14:37:17.591Z,9.20
2022-08-25T14:39:46.746Z,10.60
2022-08-25T14:42:16.921Z,9.32
2022-08-25T14:44:45.576Z,9.20
2022-08-25T14:47:13.767Z,9.27
2022-08-25T14:49:44.141Z,8.63
2022-08-25T14:52:22.416Z,9.43
2022-08-25T14:54:51.143Z,10.25
2022-08-25T14:57:19.804Z,9.38
2022-08-25T15:02:20.424Z,10.60
2022-08-25T15:05:00.945Z,10.60
2022-08-25T15:07:50.397Z,9.38
2022-08-25T15:10:19.052Z,9.95
2022-08-25T15:12:54.707Z,9.32
2022-08-25T15:15:26.459Z,9.70
2022-08-25T15:17:58.146Z,9.88
2022-08-25T15:20:29.214Z,10.15
2022-08-25T15:22:57.555Z,10.13
2022-08-25T15:25:26.466Z,9.32
2022-08-25T15:27:56.487Z,9.52
2022-08-25T15:30:31.273Z,9.02
2022-08-25T15:32:59.985Z,9.13
2022-08-25T15:35:29.343Z,9.02
2022-08-25T15:37:57.695Z,9.35
2022-08-25T15:40:28.072Z,10.05
2022-08-25T15:42:56.122Z,10.38
2022-08-25T15:45:24.279Z,10.82
2022-08-25T15:47:54.086Z,9.80
2022-08-25T15:52:54.468Z,9.80
2022-08-25T15:55:22.352Z,10.55
2022-08-25T15:57:50.463Z,11.13
2022-08-25T16:00:19.165Z,10.98
2022-08-25T16:02:50.120Z,9.88
2022-08-25T16:05:20.443Z,11.52
2022-08-25T16:07:53.810Z,11.27
2022-08-25T16:10:22.619Z,9.68
2022-08-25T16:12:52.008Z,10.25
2022-08-25T16:15:23.829Z,10.00
2022-08-25T16:17:52.042Z,10.38
2022-08-25T16:20:21.133Z,9.02
2022-08-25T16:22:52.240Z,10.82
2022-08-25T16:25:20.768Z,11.05
2022-08-25T16:27:49.513Z,10.83
2022-08-25T16:30:18.242Z,11.48
2022-08-25T16:32:46.988Z,11.63
2022-08-25T16:35:15.837Z,9.97
2022-08-25T16:37:44.892Z,11.90
2022-08-25T16:40:14.969Z,10.85
2022-08-25T16:42:42.889Z,11.75
2022-08-25T16:45:11.969Z,10.05
2022-08-25T16:47:40.091Z,9.80
2022-08-25T16:50:11.889Z,10.10
2022-08-25T16:52:59.447Z,11.75
2022-08-25T16:55:38.853Z,10.98
2022-08-25T16:58:08.892Z,11.75
2022-08-25T17:00:44.563Z,11.13
2022-08-25T17:03:13.224Z,9.77
2022-08-25T17:05:43.263Z,10.45
2022-08-25T17:11:27.512Z,11.90
2022-08-25T17:13:59.150Z,11.75
2022-08-25T17:16:31.383Z,12.07
2022-08-25T17:19:08.556Z,11.23
2022-08-25T17:21:45.052Z,11.80
2022-08-25T17:24:14.474Z,11.18
2022-08-25T17:26:43.894Z,12.07
2022-08-25T17:29:12.453Z,12.68
2022-08-25T17:31:41.101Z,11.40
2022-08-25T17:34:11.087Z,12.88
2022-08-25T17:36:40.998Z,12.65
2022-08-25T17:39:10.655Z,12.52
2022-08-25T17:41:38.834Z,14.30
2022-08-25T17:44:09.065Z,13.00
2022-08-25T17:46:44.169Z,13.18
2022-08-25T17:49:17.411Z,11.82
2022-08-25T17:54:13.955Z,12.95
2022-08-25T17:56:41.944Z,12.82
2022-08-25T17:59:10.583Z,13.40
2022-08-25T18:01:42.075Z,12.27
2022-08-25T18:04:17.254Z,13.93
2022-08-25T18:06:48.800Z,12.20
2022-08-25T18:09:18.021Z,12.07
2022-08-25T18:11:46.662Z,12.68
2022-08-25T18:14:17.172Z,11.70
2022-08-25T18:16:46.088Z,13.60
2022-08-25T18:19:15.075Z,12.55
2022-08-25T18:21:43.334Z,13.18
2022-08-25T18:24:13.419Z,11.98
2022-08-25T18:26:42.567Z,12.25
2022-08-25T18:29:13.412Z,13.15
2022-08-25T18:31:42.538Z,12.25
2022-08-25T18:34:13.497Z,10.63
2022-08-25T18:36:41.867Z,10.82
2022-08-25T18:39:34.073Z,10.90
2022-08-25T18:42:07.223Z,12.95
2022-08-25T18:44:36.639Z,11.75
2022-08-25T18:47:07.392Z,12.40
2022-08-25T18:49:37.912Z,14.02
2022-08-25T18:52:07.497Z,11.35
2022-08-25T18:54:36.323Z,10.68
2022-08-25T18:57:05.145Z,11.85
2022-08-25T18:59:38.658Z,13.05
2022-08-25T19:02:08.402Z,11.25
2022-08-25T19:04:39.297Z,13.70
2022-08-25T19:07:13.570Z,10.65
2022-08-25T19:09:41.818Z,11.55
2022-08-25T19:12:11.883Z,12.27
2022-08-25T19:14:52.955Z,10.75
2022-08-25T19:17:24.747Z,11.48
2022-08-25T19:19:57.293Z,12.23
2022-08-25T19:22:41.090Z,10.80
2022-08-25T19:25:11.610Z,11.27
2022-08-25T19:27:41.218Z,11.63
2022-08-25T19:30:13.574Z,10.45
2022-08-25T19:32:43.732Z,9.85
2022-08-25T19:35:22.334Z,11.70
2022-08-25T19:37:52.382Z,11.02
2022-08-25T19:40:21.943Z,11.85
2022-08-25T19:42:54.658Z,11.13
2022-08-25T19:45:23.430Z,10.25
2022-08-25T19:47:52.146Z,11.45
2022-08-25T19:50:23.137Z,11.45
2022-08-25T19:55:20.361Z,10.98
2022-08-25T19:57:48.504Z,11.98
2022-08-25T20:00:25.988Z,12.73
2022-08-25T20:02:54.297Z,10.25
2022-08-25T20:05:24.574Z,12.23
2022-08-25T20:10:22.790Z,12.43
2022-08-25T20:12:52.060Z,11.18
2022-08-25T20:15:22.467Z,12.73
2022-08-25T20:17:51.553Z,11.15
2022-08-25T20:20:24.838Z,11.65
2022-08-25T20:22:55.790Z,13.60
2022-08-25T20:25:27.061Z,12.15
2022-08-25T20:28:05.242Z,11.98
2022-08-25T20:30:33.320Z,10.73
2022-08-25T20:33:02.033Z,11.63
2022-08-25T20:35:30.710Z,11.52
2022-08-25T20:37:59.250Z,12.43
2022-08-25T20:40:30.162Z,13.02
2022-08-25T20:43:03.114Z,12.98
2022-08-25T20:45:31.604Z,12.27
2022-08-25T20:47:59.901Z,11.85
2022-08-25T20:50:29.984Z,12.55
2022-08-25T20:52:59.501Z,12.20
2022-08-25T20:55:30.249Z,13.77
2022-08-25T20:57:58.915Z,11.25
2022-08-25T21:00:27.013Z,11.70
2022-08-25T21:02:55.275Z,11.43
2022-08-25T21:05:23.198Z,12.35
2022-08-25T21:07:51.459Z,11.98
2022-08-25T21:10:19.437Z,11.88
2022-08-25T21:12:49.332Z,12.05
2022-08-25T21:15:21.885Z,11.93
2022-08-25T21:17:51.430Z,11.43
2022-08-25T21:20:20.672Z,14.95
2022-08-25T21:22:49.508Z,15.18
2022-08-25T21:25:19.337Z,12.05
2022-08-25T21:27:48.067Z,13.25
2022-08-25T21:30:17.593Z,14.23
2022-08-25T21:32:53.514Z,13.15
2022-08-25T21:35:23.522Z,12.88
2022-08-25T21:37:53.313Z,13.27
2022-08-25T21:40:23.273Z,13.55
2022-08-25T21:42:52.134Z,11.23
2022-08-25T21:45:21.012Z,12.10
2022-08-25T21:47:49.990Z,12.63
2022-08-25T21:50:20.630Z,14.05
2022-08-25T21:52:48.469Z,12.30
2022-08-25T21:55:22.490Z,12.90
2022-08-25T21:57:50.588Z,13.50
2022-08-25T22:00:21.348Z,12.38
2022-08-25T22:02:50.400Z,14.40
2022-08-25T22:05:18.383Z,13.02
2022-08-25T22:07:46.502Z,13.90
2022-08-25T22:10:16.526Z,13.32
2022-08-25T22:15:16.667Z,13.60
2022-08-25T22:17:48.048Z,13.05
2022-08-25T22:20:18.411Z,12.10
2022-08-25T22:22:46.260Z,13.90
2022-08-25T22:25:14.378Z,12.80
2022-08-25T22:27:42.859Z,15.02
2022-08-25T22:30:11.558Z,14.35
2022-08-25T22:32:39.461Z,15.10
2022-08-25T22:35:08.506Z,16.63
2022-08-25T22:37:37.591Z,14.18
2022-08-25T22:40:06.290Z,14.18
2022-08-25T22:42:34.378Z,15.70
2022-08-25T22:45:02.298Z,14.38
2022-08-25T22:47:31.451Z,13.60
2022-08-25T22:49:59.556Z,14.52
2022-08-25T22:52:33.414Z,15.27
2022-08-25T22:55:03.507Z,16.77
2022-08-25T22:57:31.606Z,13.40
2022-08-25T22:59:59.517Z,14.85
2022-08-25T23:02:30.301Z,14.40
2022-08-25T23:04:58.359Z,14.85
2022-08-25T23:07:29.610Z,15.15
2022-08-25T23:09:59.939Z,14.20
2022-08-25T23:14:55.488Z,14.65
2022-08-25T23:17:23.183Z,15.70
2022-08-25T23:19:50.987Z,15.38
2022-08-25T23:22:18.686Z,15.70
2022-08-25T23:24:49.335Z,16.45
2022-08-25T23:27:19.245Z,15.02
2022-08-25T23:29:50.104Z,14.27
2022-08-25T23:32:19.282Z,14.93
2022-08-25T23:34:47.414Z,14.35
2022-08-25T23:37:16.239Z,15.07
2022-08-25T23:39:49.515Z,13.30
2022-08-25T23:42:19.411Z,14.95
2022-08-25T23:44:48.625Z,15.57
2022-08-25T23:47:18.066Z,14.23
2022-08-25T23:49:46.318Z,14.80
2022-08-25T23:52:17.788Z,14.57
2022-08-25T23:54:46.519Z,15.77
2022-08-25T23:57:14.909Z,15.32
2022-08-25T23:59:43.283Z,16.58
